sensor_id;sensor_type;location;lat;lon;timestamp;P1;durP1;ratioP1;P2;durP2;ratioP2
13975;SDS011;7062;49.792;9.946;2024-01-30T00:01:42;20.20;;;14.60;;
13975;SDS011;7062;49.792;9.946;2024-01-30T00:04:08;18.23;;;13.80;;
13975;SDS011;7062;49.792;9.946;2024-01-30T00:06:33;20.57;;;15.43;;
13975;SDS011;7062;49.792;9.946;2024-01-30T00:08:59;18.37;;;14.53;;
13975;SDS011;7062;49.792;9.946;2024-01-30T00:11:24;16.80;;;11.77;;
13975;SDS011;7062;49.792;9.946;2024-01-30T00:13:50;17.10;;;12.57;;
13975;SDS011;7062;49.792;9.946;2024-01-30T00:16:23;14.63;;;12.82;;
13975;SDS011;7062;49.792;9.946;2024-01-30T00:18:50;18.00;;;12.77;;
13975;SDS011;7062;49.792;9.946;2024-01-30T00:21:16;15.98;;;12.70;;
13975;SDS011;7062;49.792;9.946;2024-01-30T00:23:42;20.13;;;12.60;;
13975;SDS011;7062;49.792;9.946;2024-01-30T00:26:08;17.30;;;13.43;;
13975;SDS011;7062;49.792;9.946;2024-01-30T00:28:34;16.53;;;12.47;;
13975;SDS011;7062;49.792;9.946;2024-01-30T00:31:00;17.75;;;13.82;;
13975;SDS011;7062;49.792;9.946;2024-01-30T00:33:26;15.13;;;13.40;;
13975;SDS011;7062;49.792;9.946;2024-01-30T00:35:51;17.37;;;11.87;;
13975;SDS011;7062;49.792;9.946;2024-01-30T00:38:17;16.27;;;13.90;;
13975;SDS011;7062;49.792;9.946;2024-01-30T00:40:43;14.93;;;12.77;;
13975;SDS011;7062;49.792;9.946;2024-01-30T00:43:08;13.27;;;11.87;;
13975;SDS011;7062;49.792;9.946;2024-01-30T00:45:34;13.70;;;11.60;;
13975;SDS011;7062;49.792;9.946;2024-01-30T00:48:00;21.30;;;13.33;;
13975;SDS011;7062;49.792;9.946;2024-01-30T00:50:25;13.53;;;10.87;;
13975;SDS011;7062;49.792;9.946;2024-01-30T00:52:51;14.70;;;13.23;;
13975;SDS011;7062;49.792;9.946;2024-01-30T00:55:17;18.33;;;12.97;;
13975;SDS011;7062;49.792;9.946;2024-01-30T00:57:42;16.53;;;12.30;;
13975;SDS011;7062;49.792;9.946;2024-01-30T01:00:08;17.67;;;12.17;;
13975;SDS011;7062;49.792;9.946;2024-01-30T01:02:34;15.00;;;12.35;;
13975;SDS011;7062;49.792;9.946;2024-01-30T01:05:01;15.27;;;11.00;;
13975;SDS011;7062;49.792;9.946;2024-01-30T01:07:27;15.48;;;11.73;;
13975;SDS011;7062;49.792;9.946;2024-01-30T01:09:52;14.13;;;11.50;;
13975;SDS011;7062;49.792;9.946;2024-01-30T01:12:18;15.97;;;12.63;;
13975;SDS011;7062;49.792;9.946;2024-01-30T01:14:44;14.57;;;12.35;;
13975;SDS011;7062;49.792;9.946;2024-01-30T01:17:10;15.17;;;12.57;;
13975;SDS011;7062;49.792;9.946;2024-01-30T01:19:35;15.57;;;11.77;;
13975;SDS011;7062;49.792;9.946;2024-01-30T01:22:01;18.53;;;12.07;;
13975;SDS011;7062;49.792;9.946;2024-01-30T01:24:28;17.23;;;11.63;;
13975;SDS011;7062;49.792;9.946;2024-01-30T01:26:55;13.57;;;12.23;;
13975;SDS011;7062;49.792;9.946;2024-01-30T01:29:22;16.38;;;12.50;;
13975;SDS011;7062;49.792;9.946;2024-01-30T01:31:53;16.52;;;11.10;;
13975;SDS011;7062;49.792;9.946;2024-01-30T01:34:22;17.13;;;12.80;;
13975;SDS011;7062;49.792;9.946;2024-01-30T01:36:49;19.45;;;11.70;;
13975;SDS011;7062;49.792;9.946;2024-01-30T01:39:15;16.17;;;12.10;;
13975;SDS011;7062;49.792;9.946;2024-01-30T01:41:41;15.77;;;12.13;;
13975;SDS011;7062;49.792;9.946;2024-01-30T01:44:07;16.60;;;11.43;;
13975;SDS011;7062;49.792;9.946;2024-01-30T01:46:33;16.02;;;13.05;;
13975;SDS011;7062;49.792;9.946;2024-01-30T01:49:00;15.27;;;12.07;;
13975;SDS011;7062;49.792;9.946;2024-01-30T01:51:27;14.85;;;11.18;;
13975;SDS011;7062;49.792;9.946;2024-01-30T01:53:55;12.45;;;11.15;;
13975;SDS011;7062;49.792;9.946;2024-01-30T01:56:22;12.85;;;11.32;;
13975;SDS011;7062;49.792;9.946;2024-01-30T01:58:49;15.45;;;12.00;;
13975;SDS011;7062;49.792;9.946;2024-01-30T02:01:16;13.63;;;11.07;;
13975;SDS011;7062;49.792;9.946;2024-01-30T02:03:45;13.43;;;11.85;;
13975;SDS011;7062;49.792;9.946;2024-01-30T02:06:11;14.15;;;10.98;;
13975;SDS011;7062;49.792;9.946;2024-01-30T02:08:38;15.88;;;12.32;;
13975;SDS011;7062;49.792;9.946;2024-01-30T02:11:04;14.82;;;11.13;;
13975;SDS011;7062;49.792;9.946;2024-01-30T02:13:30;16.27;;;12.23;;
13975;SDS011;7062;49.792;9.946;2024-01-30T02:15:56;13.77;;;12.23;;
13975;SDS011;7062;49.792;9.946;2024-01-30T02:18:22;16.73;;;12.37;;
13975;SDS011;7062;49.792;9.946;2024-01-30T02:20:47;14.65;;;11.85;;
13975;SDS011;7062;49.792;9.946;2024-01-30T02:23:15;12.68;;;11.23;;
13975;SDS011;7062;49.792;9.946;2024-01-30T02:25:41;18.65;;;12.68;;
13975;SDS011;7062;49.792;9.946;2024-01-30T02:28:10;17.63;;;13.30;;
13975;SDS011;7062;49.792;9.946;2024-01-30T02:30:37;16.88;;;13.05;;
13975;SDS011;7062;49.792;9.946;2024-01-30T02:33:03;18.00;;;12.77;;
13975;SDS011;7062;49.792;9.946;2024-01-30T02:35:28;17.20;;;13.13;;
13975;SDS011;7062;49.792;9.946;2024-01-30T02:37:54;16.97;;;13.47;;
13975;SDS011;7062;49.792;9.946;2024-01-30T02:40:19;18.27;;;12.73;;
13975;SDS011;7062;49.792;9.946;2024-01-30T02:42:45;14.43;;;11.83;;
13975;SDS011;7062;49.792;9.946;2024-01-30T02:45:11;13.37;;;11.57;;
13975;SDS011;7062;49.792;9.946;2024-01-30T02:47:37;14.48;;;11.20;;
13975;SDS011;7062;49.792;9.946;2024-01-30T02:50:04;15.93;;;11.55;;
13975;SDS011;7062;49.792;9.946;2024-01-30T02:52:29;16.55;;;12.45;;
13975;SDS011;7062;49.792;9.946;2024-01-30T02:54:55;14.20;;;11.37;;
13975;SDS011;7062;49.792;9.946;2024-01-30T02:57:21;16.33;;;12.33;;
13975;SDS011;7062;49.792;9.946;2024-01-30T02:59:46;13.80;;;10.67;;
13975;SDS011;7062;49.792;9.946;2024-01-30T03:02:12;16.90;;;11.30;;
13975;SDS011;7062;49.792;9.946;2024-01-30T03:04:40;14.33;;;11.03;;
13975;SDS011;7062;49.792;9.946;2024-01-30T03:07:06;15.82;;;11.05;;
13975;SDS011;7062;49.792;9.946;2024-01-30T03:09:32;13.93;;;11.47;;
13975;SDS011;7062;49.792;9.946;2024-01-30T03:11:57;16.63;;;12.13;;
13975;SDS011;7062;49.792;9.946;2024-01-30T03:14:23;14.40;;;11.33;;
13975;SDS011;7062;49.792;9.946;2024-01-30T03:16:48;14.63;;;12.43;;
13975;SDS011;7062;49.792;9.946;2024-01-30T03:19:14;13.83;;;10.67;;
13975;SDS011;7062;49.792;9.946;2024-01-30T03:21:40;13.87;;;10.93;;
13975;SDS011;7062;49.792;9.946;2024-01-30T03:24:05;15.53;;;10.90;;
13975;SDS011;7062;49.792;9.946;2024-01-30T03:26:31;15.43;;;11.43;;
13975;SDS011;7062;49.792;9.946;2024-01-30T03:28:57;14.00;;;10.47;;
13975;SDS011;7062;49.792;9.946;2024-01-30T03:34:55;12.68;;;10.60;;
13975;SDS011;7062;49.792;9.946;2024-01-30T03:37:21;15.83;;;11.17;;
13975;SDS011;7062;49.792;9.946;2024-01-30T03:39:46;12.50;;;10.23;;
13975;SDS011;7062;49.792;9.946;2024-01-30T03:42:12;13.70;;;10.47;;
13975;SDS011;7062;49.792;9.946;2024-01-30T03:44:38;14.27;;;10.37;;
13975;SDS011;7062;49.792;9.946;2024-01-30T03:47:03;11.60;;;9.57;;
13975;SDS011;7062;49.792;9.946;2024-01-30T03:49:29;11.83;;;10.17;;
13975;SDS011;7062;49.792;9.946;2024-01-30T03:51:55;25.53;;;11.00;;
13975;SDS011;7062;49.792;9.946;2024-01-30T03:54:20;15.40;;;10.90;;
13975;SDS011;7062;49.792;9.946;2024-01-30T03:56:46;12.20;;;10.90;;
13975;SDS011;7062;49.792;9.946;2024-01-30T03:59:12;15.10;;;10.70;;
13975;SDS011;7062;49.792;9.946;2024-01-30T04:01:37;10.50;;;9.37;;
13975;SDS011;7062;49.792;9.946;2024-01-30T04:04:03;13.70;;;11.10;;
13975;SDS011;7062;49.792;9.946;2024-01-30T04:06:29;13.77;;;11.33;;
13975;SDS011;7062;49.792;9.946;2024-01-30T04:08:54;15.93;;;10.57;;
13975;SDS011;7062;49.792;9.946;2024-01-30T04:11:20;15.67;;;11.47;;
13975;SDS011;7062;49.792;9.946;2024-01-30T04:13:45;13.27;;;10.30;;
13975;SDS011;7062;49.792;9.946;2024-01-30T04:16:22;11.50;;;10.30;;
13975;SDS011;7062;49.792;9.946;2024-01-30T04:18:48;11.00;;;9.65;;
13975;SDS011;7062;49.792;9.946;2024-01-30T04:21:13;13.57;;;11.20;;
13975;SDS011;7062;49.792;9.946;2024-01-30T04:23:40;12.23;;;8.80;;
13975;SDS011;7062;49.792;9.946;2024-01-30T04:26:06;12.43;;;10.50;;
13975;SDS011;7062;49.792;9.946;2024-01-30T04:28:32;12.70;;;10.40;;
13975;SDS011;7062;49.792;9.946;2024-01-30T04:30:57;12.33;;;9.50;;
13975;SDS011;7062;49.792;9.946;2024-01-30T04:33:23;13.47;;;10.83;;
13975;SDS011;7062;49.792;9.946;2024-01-30T04:35:48;11.30;;;9.50;;
13975;SDS011;7062;49.792;9.946;2024-01-30T04:38:14;14.33;;;10.70;;
13975;SDS011;7062;49.792;9.946;2024-01-30T04:40:40;11.50;;;10.30;;
13975;SDS011;7062;49.792;9.946;2024-01-30T04:43:06;13.17;;;11.20;;
13975;SDS011;7062;49.792;9.946;2024-01-30T04:45:31;13.73;;;11.47;;
13975;SDS011;7062;49.792;9.946;2024-01-30T04:47:57;11.10;;;9.60;;
13975;SDS011;7062;49.792;9.946;2024-01-30T04:50:23;12.20;;;10.57;;
13975;SDS011;7062;49.792;9.946;2024-01-30T04:52:48;12.23;;;10.13;;
13975;SDS011;7062;49.792;9.946;2024-01-30T04:55:14;13.37;;;10.73;;
13975;SDS011;7062;49.792;9.946;2024-01-30T04:57:40;11.10;;;9.40;;
13975;SDS011;7062;49.792;9.946;2024-01-30T05:00:06;13.17;;;10.40;;
13975;SDS011;7062;49.792;9.946;2024-01-30T05:02:32;11.18;;;9.90;;
13975;SDS011;7062;49.792;9.946;2024-01-30T05:04:58;15.47;;;11.23;;
13975;SDS011;7062;49.792;9.946;2024-01-30T05:07:24;14.30;;;10.57;;
13975;SDS011;7062;49.792;9.946;2024-01-30T05:09:50;11.85;;;9.90;;
13975;SDS011;7062;49.792;9.946;2024-01-30T05:12:16;11.17;;;9.83;;
13975;SDS011;7062;49.792;9.946;2024-01-30T05:14:41;11.17;;;10.07;;
13975;SDS011;7062;49.792;9.946;2024-01-30T05:17:07;12.97;;;9.70;;
13975;SDS011;7062;49.792;9.946;2024-01-30T05:19:37;13.23;;;9.82;;
13975;SDS011;7062;49.792;9.946;2024-01-30T05:22:03;13.40;;;10.13;;
13975;SDS011;7062;49.792;9.946;2024-01-30T05:24:29;11.33;;;10.23;;
13975;SDS011;7062;49.792;9.946;2024-01-30T05:26:54;14.80;;;10.07;;
13975;SDS011;7062;49.792;9.946;2024-01-30T05:29:20;12.17;;;10.87;;
13975;SDS011;7062;49.792;9.946;2024-01-30T05:31:46;12.80;;;10.87;;
13975;SDS011;7062;49.792;9.946;2024-01-30T05:34:11;13.80;;;10.77;;
13975;SDS011;7062;49.792;9.946;2024-01-30T05:36:37;14.67;;;10.73;;
13975;SDS011;7062;49.792;9.946;2024-01-30T05:39:03;13.13;;;10.73;;
13975;SDS011;7062;49.792;9.946;2024-01-30T05:41:28;15.53;;;10.67;;
13975;SDS011;7062;49.792;9.946;2024-01-30T05:43:54;14.30;;;10.97;;
13975;SDS011;7062;49.792;9.946;2024-01-30T05:46:19;13.37;;;10.47;;
13975;SDS011;7062;49.792;9.946;2024-01-30T05:48:45;11.43;;;10.10;;
13975;SDS011;7062;49.792;9.946;2024-01-30T05:51:11;13.87;;;9.93;;
13975;SDS011;7062;49.792;9.946;2024-01-30T05:53:36;16.87;;;10.53;;
13975;SDS011;7062;49.792;9.946;2024-01-30T05:56:02;13.80;;;10.43;;
13975;SDS011;7062;49.792;9.946;2024-01-30T05:58:28;13.57;;;11.23;;
13975;SDS011;7062;49.792;9.946;2024-01-30T06:00:54;15.93;;;12.07;;
13975;SDS011;7062;49.792;9.946;2024-01-30T06:03:19;13.80;;;11.63;;
13975;SDS011;7062;49.792;9.946;2024-01-30T06:05:45;14.75;;;11.52;;
13975;SDS011;7062;49.792;9.946;2024-01-30T06:08:11;14.93;;;11.10;;
13975;SDS011;7062;49.792;9.946;2024-01-30T06:10:37;15.83;;;11.73;;
13975;SDS011;7062;49.792;9.946;2024-01-30T06:13:02;13.37;;;11.77;;
13975;SDS011;7062;49.792;9.946;2024-01-30T06:15:28;17.83;;;11.60;;
13975;SDS011;7062;49.792;9.946;2024-01-30T06:17:57;15.65;;;11.82;;
13975;SDS011;7062;49.792;9.946;2024-01-30T06:20:23;16.17;;;10.80;;
13975;SDS011;7062;49.792;9.946;2024-01-30T06:22:49;13.90;;;11.30;;
13975;SDS011;7062;49.792;9.946;2024-01-30T06:25:15;13.37;;;11.33;;
13975;SDS011;7062;49.792;9.946;2024-01-30T06:27:41;16.02;;;12.15;;
13975;SDS011;7062;49.792;9.946;2024-01-30T06:30:07;16.52;;;11.57;;
13975;SDS011;7062;49.792;9.946;2024-01-30T06:32:43;14.30;;;10.80;;
13975;SDS011;7062;49.792;9.946;2024-01-30T06:35:09;18.70;;;11.93;;
13975;SDS011;7062;49.792;9.946;2024-01-30T06:37:35;14.70;;;12.82;;
13975;SDS011;7062;49.792;9.946;2024-01-30T06:40:01;15.88;;;14.27;;
13975;SDS011;7062;49.792;9.946;2024-01-30T06:42:29;12.48;;;11.05;;
13975;SDS011;7062;49.792;9.946;2024-01-30T06:44:55;14.93;;;13.33;;
13975;SDS011;7062;49.792;9.946;2024-01-30T06:47:20;15.00;;;12.20;;
13975;SDS011;7062;49.792;9.946;2024-01-30T06:49:46;12.23;;;11.00;;
13975;SDS011;7062;49.792;9.946;2024-01-30T06:52:12;13.13;;;10.10;;
13975;SDS011;7062;49.792;9.946;2024-01-30T06:54:37;13.37;;;12.10;;
13975;SDS011;7062;49.792;9.946;2024-01-30T06:57:04;16.98;;;11.93;;
13975;SDS011;7062;49.792;9.946;2024-01-30T06:59:34;14.63;;;12.15;;
13975;SDS011;7062;49.792;9.946;2024-01-30T07:01:59;15.93;;;11.50;;
13975;SDS011;7062;49.792;9.946;2024-01-30T07:04:25;11.90;;;10.40;;
13975;SDS011;7062;49.792;9.946;2024-01-30T07:06:51;12.50;;;11.00;;
13975;SDS011;7062;49.792;9.946;2024-01-30T07:09:18;12.60;;;10.98;;
13975;SDS011;7062;49.792;9.946;2024-01-30T07:11:44;14.83;;;11.33;;
13975;SDS011;7062;49.792;9.946;2024-01-30T07:14:10;15.80;;;12.23;;
13975;SDS011;7062;49.792;9.946;2024-01-30T07:16:35;18.80;;;11.90;;
13975;SDS011;7062;49.792;9.946;2024-01-30T07:19:01;13.93;;;11.93;;
13975;SDS011;7062;49.792;9.946;2024-01-30T07:21:27;18.23;;;13.45;;
13975;SDS011;7062;49.792;9.946;2024-01-30T07:23:56;14.25;;;11.93;;
13975;SDS011;7062;49.792;9.946;2024-01-30T07:26:22;15.73;;;11.60;;
13975;SDS011;7062;49.792;9.946;2024-01-30T07:28:48;14.93;;;11.60;;
13975;SDS011;7062;49.792;9.946;2024-01-30T07:31:15;16.63;;;12.02;;
13975;SDS011;7062;49.792;9.946;2024-01-30T07:33:40;12.73;;;11.03;;
13975;SDS011;7062;49.792;9.946;2024-01-30T07:36:06;18.27;;;12.37;;
13975;SDS011;7062;49.792;9.946;2024-01-30T07:38:31;14.87;;;13.27;;
13975;SDS011;7062;49.792;9.946;2024-01-30T07:40:57;13.70;;;12.17;;
13975;SDS011;7062;49.792;9.946;2024-01-30T07:43:23;14.03;;;11.30;;
13975;SDS011;7062;49.792;9.946;2024-01-30T07:45:49;14.67;;;12.63;;
13975;SDS011;7062;49.792;9.946;2024-01-30T07:48:14;15.97;;;11.87;;
13975;SDS011;7062;49.792;9.946;2024-01-30T07:50:40;17.57;;;12.40;;
13975;SDS011;7062;49.792;9.946;2024-01-30T07:53:06;20.10;;;12.80;;
13975;SDS011;7062;49.792;9.946;2024-01-30T07:55:32;17.97;;;14.43;;
13975;SDS011;7062;49.792;9.946;2024-01-30T07:57:57;18.00;;;14.37;;
13975;SDS011;7062;49.792;9.946;2024-01-30T08:00:26;18.35;;;13.82;;
13975;SDS011;7062;49.792;9.946;2024-01-30T08:02:54;14.43;;;12.18;;
13975;SDS011;7062;49.792;9.946;2024-01-30T08:05:20;18.23;;;13.43;;
13975;SDS011;7062;49.792;9.946;2024-01-30T08:07:49;13.23;;;11.85;;
13975;SDS011;7062;49.792;9.946;2024-01-30T08:10:15;14.57;;;11.93;;
13975;SDS011;7062;49.792;9.946;2024-01-30T08:12:43;20.17;;;14.10;;
13975;SDS011;7062;49.792;9.946;2024-01-30T08:15:08;18.27;;;13.37;;
13975;SDS011;7062;49.792;9.946;2024-01-30T08:17:34;15.68;;;12.10;;
13975;SDS011;7062;49.792;9.946;2024-01-30T08:20:00;16.63;;;13.53;;
13975;SDS011;7062;49.792;9.946;2024-01-30T08:22:26;13.90;;;12.50;;
13975;SDS011;7062;49.792;9.946;2024-01-30T08:24:51;15.33;;;12.47;;
13975;SDS011;7062;49.792;9.946;2024-01-30T08:27:17;18.73;;;13.23;;
13975;SDS011;7062;49.792;9.946;2024-01-30T08:29:43;17.67;;;13.40;;
13975;SDS011;7062;49.792;9.946;2024-01-30T08:32:08;20.53;;;15.07;;
13975;SDS011;7062;49.792;9.946;2024-01-30T08:34:34;17.87;;;13.90;;
13975;SDS011;7062;49.792;9.946;2024-01-30T08:36:59;15.33;;;13.70;;
13975;SDS011;7062;49.792;9.946;2024-01-30T08:39:25;17.80;;;13.67;;
13975;SDS011;7062;49.792;9.946;2024-01-30T08:41:51;18.67;;;14.87;;
13975;SDS011;7062;49.792;9.946;2024-01-30T08:44:17;16.00;;;13.77;;
13975;SDS011;7062;49.792;9.946;2024-01-30T08:46:43;16.70;;;13.53;;
13975;SDS011;7062;49.792;9.946;2024-01-30T08:49:10;19.17;;;14.90;;
13975;SDS011;7062;49.792;9.946;2024-01-30T08:51:38;18.15;;;13.60;;
13975;SDS011;7062;49.792;9.946;2024-01-30T08:54:06;18.70;;;14.13;;
13975;SDS011;7062;49.792;9.946;2024-01-30T08:56:32;18.73;;;14.37;;
13975;SDS011;7062;49.792;9.946;2024-01-30T08:58:58;16.30;;;14.17;;
13975;SDS011;7062;49.792;9.946;2024-01-30T09:01:24;17.37;;;14.77;;
13975;SDS011;7062;49.792;9.946;2024-01-30T09:03:50;17.30;;;15.35;;
13975;SDS011;7062;49.792;9.946;2024-01-30T09:06:16;18.37;;;14.10;;
13975;SDS011;7062;49.792;9.946;2024-01-30T09:08:41;16.57;;;14.57;;
13975;SDS011;7062;49.792;9.946;2024-01-30T09:11:11;16.27;;;14.57;;
13975;SDS011;7062;49.792;9.946;2024-01-30T09:13:38;15.00;;;12.80;;
13975;SDS011;7062;49.792;9.946;2024-01-30T09:16:04;17.27;;;14.47;;
13975;SDS011;7062;49.792;9.946;2024-01-30T09:18:30;17.42;;;13.77;;
13975;SDS011;7062;49.792;9.946;2024-01-30T09:20:56;18.05;;;14.13;;
13975;SDS011;7062;49.792;9.946;2024-01-30T09:23:22;16.50;;;13.67;;
13975;SDS011;7062;49.792;9.946;2024-01-30T09:25:48;15.23;;;13.53;;
13975;SDS011;7062;49.792;9.946;2024-01-30T09:28:13;17.27;;;13.37;;
13975;SDS011;7062;49.792;9.946;2024-01-30T09:30:39;14.53;;;13.00;;
13975;SDS011;7062;49.792;9.946;2024-01-30T09:33:05;16.77;;;13.80;;
13975;SDS011;7062;49.792;9.946;2024-01-30T09:35:31;15.05;;;13.55;;
13975;SDS011;7062;49.792;9.946;2024-01-30T09:37:57;14.33;;;12.83;;
13975;SDS011;7062;49.792;9.946;2024-01-30T09:40:23;15.33;;;13.27;;
13975;SDS011;7062;49.792;9.946;2024-01-30T09:42:50;19.58;;;15.10;;
13975;SDS011;7062;49.792;9.946;2024-01-30T09:45:18;15.98;;;13.68;;
13975;SDS011;7062;49.792;9.946;2024-01-30T09:47:44;16.73;;;14.48;;
13975;SDS011;7062;49.792;9.946;2024-01-30T09:50:11;16.15;;;14.30;;
13975;SDS011;7062;49.792;9.946;2024-01-30T09:52:38;15.70;;;13.57;;
13975;SDS011;7062;49.792;9.946;2024-01-30T09:55:04;16.83;;;14.03;;
13975;SDS011;7062;49.792;9.946;2024-01-30T09:57:30;14.73;;;13.23;;
13975;SDS011;7062;49.792;9.946;2024-01-30T09:59:56;15.80;;;13.40;;
13975;SDS011;7062;49.792;9.946;2024-01-30T10:02:22;17.58;;;13.35;;
13975;SDS011;7062;49.792;9.946;2024-01-30T10:04:49;21.73;;;14.97;;
13975;SDS011;7062;49.792;9.946;2024-01-30T10:07:16;16.70;;;12.83;;
13975;SDS011;7062;49.792;9.946;2024-01-30T10:09:43;14.27;;;12.80;;
13975;SDS011;7062;49.792;9.946;2024-01-30T10:12:09;14.20;;;12.77;;
13975;SDS011;7062;49.792;9.946;2024-01-30T10:14:41;19.20;;;15.00;;
13975;SDS011;7062;49.792;9.946;2024-01-30T10:17:08;16.50;;;13.60;;
13975;SDS011;7062;49.792;9.946;2024-01-30T10:19:38;15.30;;;13.67;;
13975;SDS011;7062;49.792;9.946;2024-01-30T10:22:05;16.57;;;14.67;;
13975;SDS011;7062;49.792;9.946;2024-01-30T10:24:31;15.73;;;13.77;;
13975;SDS011;7062;49.792;9.946;2024-01-30T10:26:59;18.90;;;13.63;;
13975;SDS011;7062;49.792;9.946;2024-01-30T10:29:24;14.70;;;13.23;;
13975;SDS011;7062;49.792;9.946;2024-01-30T10:32:02;14.60;;;12.70;;
13975;SDS011;7062;49.792;9.946;2024-01-30T10:34:30;15.97;;;13.97;;
13975;SDS011;7062;49.792;9.946;2024-01-30T10:37:08;17.50;;;13.47;;
13975;SDS011;7062;49.792;9.946;2024-01-30T10:39:40;15.17;;;13.13;;
13975;SDS011;7062;49.792;9.946;2024-01-30T10:42:11;14.43;;;12.93;;
13975;SDS011;7062;49.792;9.946;2024-01-30T10:44:44;16.63;;;13.93;;
13975;SDS011;7062;49.792;9.946;2024-01-30T10:47:35;15.83;;;13.83;;
13975;SDS011;7062;49.792;9.946;2024-01-30T10:50:04;13.80;;;12.40;;
13975;SDS011;7062;49.792;9.946;2024-01-30T10:52:30;14.20;;;12.50;;
13975;SDS011;7062;49.792;9.946;2024-01-30T10:54:57;17.47;;;13.70;;
13975;SDS011;7062;49.792;9.946;2024-01-30T10:57:23;16.13;;;12.97;;
13975;SDS011;7062;49.792;9.946;2024-01-30T10:59:58;15.40;;;13.37;;
13975;SDS011;7062;49.792;9.946;2024-01-30T11:02:26;15.27;;;13.40;;
13975;SDS011;7062;49.792;9.946;2024-01-30T11:04:59;17.57;;;13.73;;
13975;SDS011;7062;49.792;9.946;2024-01-30T11:07:26;21.93;;;16.30;;
13975;SDS011;7062;49.792;9.946;2024-01-30T11:09:53;25.50;;;17.80;;
13975;SDS011;7062;49.792;9.946;2024-01-30T11:12:28;27.97;;;18.53;;
13975;SDS011;7062;49.792;9.946;2024-01-30T11:17:51;19.10;;;17.00;;
13975;SDS011;7062;49.792;9.946;2024-01-30T11:20:21;19.20;;;16.30;;
13975;SDS011;7062;49.792;9.946;2024-01-30T11:22:49;17.37;;;15.30;;
13975;SDS011;7062;49.792;9.946;2024-01-30T11:25:17;18.37;;;15.40;;
13975;SDS011;7062;49.792;9.946;2024-01-30T11:27:44;17.63;;;15.00;;
13975;SDS011;7062;49.792;9.946;2024-01-30T11:30:20;17.97;;;15.77;;
13975;SDS011;7062;49.792;9.946;2024-01-30T11:35:25;16.57;;;14.83;;
13975;SDS011;7062;49.792;9.946;2024-01-30T11:37:51;19.80;;;15.77;;
13975;SDS011;7062;49.792;9.946;2024-01-30T11:40:17;17.70;;;15.60;;
13975;SDS011;7062;49.792;9.946;2024-01-30T11:42:44;21.63;;;15.83;;
13975;SDS011;7062;49.792;9.946;2024-01-30T11:45:12;19.57;;;15.53;;
13975;SDS011;7062;49.792;9.946;2024-01-30T11:47:37;17.67;;;15.93;;
13975;SDS011;7062;49.792;9.946;2024-01-30T11:50:04;21.10;;;15.57;;
13975;SDS011;7062;49.792;9.946;2024-01-30T11:52:31;17.33;;;15.60;;
13975;SDS011;7062;49.792;9.946;2024-01-30T11:54:58;20.00;;;15.77;;
13975;SDS011;7062;49.792;9.946;2024-01-30T11:57:26;16.20;;;14.50;;
13975;SDS011;7062;49.792;9.946;2024-01-30T11:59:52;17.23;;;14.23;;
13975;SDS011;7062;49.792;9.946;2024-01-30T12:02:22;19.63;;;14.83;;
13975;SDS011;7062;49.792;9.946;2024-01-30T12:04:47;18.27;;;16.17;;
13975;SDS011;7062;49.792;9.946;2024-01-30T12:07:13;15.70;;;14.20;;
13975;SDS011;7062;49.792;9.946;2024-01-30T12:09:41;17.13;;;14.27;;
13975;SDS011;7062;49.792;9.946;2024-01-30T12:12:07;18.17;;;15.47;;
13975;SDS011;7062;49.792;9.946;2024-01-30T12:14:37;16.70;;;14.97;;
13975;SDS011;7062;49.792;9.946;2024-01-30T12:17:04;16.90;;;15.20;;
13975;SDS011;7062;49.792;9.946;2024-01-30T12:19:30;17.60;;;15.70;;
13975;SDS011;7062;49.792;9.946;2024-01-30T12:21:56;17.33;;;15.53;;
13975;SDS011;7062;49.792;9.946;2024-01-30T12:24:24;18.23;;;15.57;;
13975;SDS011;7062;49.792;9.946;2024-01-30T12:26:58;16.50;;;14.73;;
13975;SDS011;7062;49.792;9.946;2024-01-30T12:29:25;26.50;;;16.27;;
13975;SDS011;7062;49.792;9.946;2024-01-30T12:31:53;18.47;;;16.17;;
13975;SDS011;7062;49.792;9.946;2024-01-30T12:34:19;17.43;;;15.43;;
13975;SDS011;7062;49.792;9.946;2024-01-30T12:36:46;18.03;;;16.20;;
13975;SDS011;7062;49.792;9.946;2024-01-30T12:39:14;17.03;;;15.10;;
13975;SDS011;7062;49.792;9.946;2024-01-30T12:41:40;19.77;;;14.43;;
13975;SDS011;7062;49.792;9.946;2024-01-30T12:44:05;17.70;;;15.53;;
13975;SDS011;7062;49.792;9.946;2024-01-30T12:46:33;17.30;;;15.63;;
13975;SDS011;7062;49.792;9.946;2024-01-30T12:48:59;20.03;;;15.17;;
13975;SDS011;7062;49.792;9.946;2024-01-30T12:51:25;17.93;;;15.30;;
13975;SDS011;7062;49.792;9.946;2024-01-30T12:53:51;19.37;;;15.27;;
13975;SDS011;7062;49.792;9.946;2024-01-30T12:56:16;17.53;;;15.43;;
13975;SDS011;7062;49.792;9.946;2024-01-30T12:58:42;18.33;;;15.37;;
13975;SDS011;7062;49.792;9.946;2024-01-30T13:01:08;17.03;;;15.23;;
13975;SDS011;7062;49.792;9.946;2024-01-30T13:03:34;19.20;;;14.60;;
13975;SDS011;7062;49.792;9.946;2024-01-30T13:06:00;21.20;;;14.93;;
13975;SDS011;7062;49.792;9.946;2024-01-30T13:08:26;26.33;;;16.00;;
13975;SDS011;7062;49.792;9.946;2024-01-30T13:10:52;17.53;;;14.83;;
13975;SDS011;7062;49.792;9.946;2024-01-30T13:13:17;19.70;;;15.10;;
13975;SDS011;7062;49.792;9.946;2024-01-30T13:15:43;18.80;;;15.30;;
13975;SDS011;7062;49.792;9.946;2024-01-30T13:18:09;16.23;;;14.27;;
13975;SDS011;7062;49.792;9.946;2024-01-30T13:20:35;16.63;;;14.60;;
13975;SDS011;7062;49.792;9.946;2024-01-30T13:23:00;16.63;;;14.83;;
13975;SDS011;7062;49.792;9.946;2024-01-30T13:25:26;18.70;;;15.87;;
13975;SDS011;7062;49.792;9.946;2024-01-30T13:27:52;17.40;;;15.33;;
13975;SDS011;7062;49.792;9.946;2024-01-30T13:30:17;16.70;;;14.23;;
13975;SDS011;7062;49.792;9.946;2024-01-30T13:32:43;16.63;;;14.93;;
13975;SDS011;7062;49.792;9.946;2024-01-30T13:35:09;19.17;;;14.43;;
13975;SDS011;7062;49.792;9.946;2024-01-30T13:37:35;18.07;;;14.30;;
13975;SDS011;7062;49.792;9.946;2024-01-30T13:40:02;20.53;;;16.47;;
13975;SDS011;7062;49.792;9.946;2024-01-30T13:42:31;17.50;;;14.23;;
13975;SDS011;7062;49.792;9.946;2024-01-30T13:44:57;23.40;;;15.90;;
13975;SDS011;7062;49.792;9.946;2024-01-30T13:47:23;17.97;;;16.07;;
13975;SDS011;7062;49.792;9.946;2024-01-30T13:49:50;16.73;;;14.97;;
13975;SDS011;7062;49.792;9.946;2024-01-30T13:52:17;21.47;;;15.97;;
13975;SDS011;7062;49.792;9.946;2024-01-30T13:54:43;16.87;;;15.17;;
13975;SDS011;7062;49.792;9.946;2024-01-30T13:57:08;17.13;;;14.77;;
13975;SDS011;7062;49.792;9.946;2024-01-30T13:59:35;21.70;;;15.93;;
13975;SDS011;7062;49.792;9.946;2024-01-30T14:02:00;24.53;;;15.77;;
13975;SDS011;7062;49.792;9.946;2024-01-30T14:04:26;16.60;;;14.87;;
13975;SDS011;7062;49.792;9.946;2024-01-30T14:06:52;16.60;;;14.93;;
13975;SDS011;7062;49.792;9.946;2024-01-30T14:09:17;18.27;;;14.43;;
13975;SDS011;7062;49.792;9.946;2024-01-30T14:11:43;21.70;;;15.10;;
13975;SDS011;7062;49.792;9.946;2024-01-30T14:14:09;18.50;;;15.30;;
13975;SDS011;7062;49.792;9.946;2024-01-30T14:16:34;24.67;;;15.37;;
13975;SDS011;7062;49.792;9.946;2024-01-30T14:19:00;22.63;;;17.97;;
13975;SDS011;7062;49.792;9.946;2024-01-30T14:21:26;24.40;;;18.87;;
13975;SDS011;7062;49.792;9.946;2024-01-30T14:23:51;22.50;;;18.30;;
13975;SDS011;7062;49.792;9.946;2024-01-30T14:26:17;25.60;;;18.60;;
13975;SDS011;7062;49.792;9.946;2024-01-30T14:28:43;23.33;;;18.77;;
13975;SDS011;7062;49.792;9.946;2024-01-30T14:31:10;25.13;;;17.73;;
13975;SDS011;7062;49.792;9.946;2024-01-30T14:33:36;22.27;;;17.03;;
13975;SDS011;7062;49.792;9.946;2024-01-30T14:36:02;30.30;;;18.37;;
13975;SDS011;7062;49.792;9.946;2024-01-30T14:38:28;24.33;;;18.00;;
13975;SDS011;7062;49.792;9.946;2024-01-30T14:40:54;23.97;;;18.60;;